createdAt,value
2018-03-23T14:51:18.129Z,966.84
2018-03-23T14:52:18.157Z,966.86
2018-03-23T14:53:18.183Z,966.87
2018-03-23T14:54:18.205Z,966.96
2018-03-23T14:55:18.232Z,966.88
2018-03-23T14:56:18.264Z,966.89
2018-03-23T14:57:18.292Z,966.89
2018-03-23T14:58:18.317Z,966.83
2018-03-23T14:59:18.347Z,966.86
2018-03-23T15:00:18.374Z,966.85
2018-03-23T15:01:18.395Z,966.82
2018-03-23T15:02:18.426Z,966.77
2018-03-23T15:03:18.454Z,966.76
2018-03-23T15:04:18.485Z,966.77
2018-03-23T15:05:18.515Z,966.75
2018-03-23T15:06:18.543Z,966.77
2018-03-23T15:07:18.570Z,966.72
2018-03-23T15:08:18.593Z,966.75
2018-03-23T15:09:18.626Z,966.74
2018-03-23T15:10:18.652Z,966.70
2018-03-23T15:11:18.680Z,966.71
2018-03-23T15:12:18.715Z,966.68
2018-03-23T15:13:18.748Z,966.71
2018-03-23T15:14:18.773Z,966.73
2018-03-23T15:15:18.804Z,966.72
2018-03-23T15:16:18.829Z,966.73
2018-03-23T15:17:18.858Z,966.73
2018-03-23T15:18:18.890Z,966.71
2018-03-23T15:19:18.916Z,966.78
2018-03-23T15:20:18.952Z,966.74
2018-03-23T15:21:18.980Z,966.76
2018-03-23T15:22:19.012Z,966.78
2018-03-23T15:23:19.041Z,966.78
2018-03-23T15:24:19.070Z,966.77
2018-03-23T15:25:19.100Z,966.77
2018-03-23T15:26:19.132Z,966.74
2018-03-23T15:27:19.158Z,966.76
2018-03-23T15:28:19.188Z,966.74
2018-03-23T15:29:19.217Z,966.78
2018-03-23T15:30:19.242Z,966.72
2018-03-23T15:31:19.275Z,966.72
2018-03-23T15:32:19.309Z,966.69
2018-03-23T15:33:19.336Z,966.65
2018-03-23T15:34:19.369Z,966.67
2018-03-23T15:35:19.397Z,966.66
2018-03-23T15:36:19.420Z,966.63
2018-03-23T15:37:19.452Z,966.64
2018-03-23T15:38:19.483Z,966.61
2018-03-23T15:39:19.511Z,966.63
2018-03-23T15:40:19.548Z,966.61
2018-03-23T15:41:19.572Z,966.64
2018-03-23T15:42:19.600Z,966.61
2018-03-23T15:43:19.633Z,966.60
2018-03-23T15:44:19.667Z,966.59
2018-03-23T15:45:19.695Z,966.61
2018-03-23T15:46:19.726Z,966.61
2018-03-23T15:47:19.756Z,966.59
2018-03-23T15:48:19.784Z,966.58
2018-03-23T15:49:19.812Z,966.57
2018-03-23T15:50:19.837Z,966.54
2018-03-23T15:51:19.870Z,966.54
2018-03-23T15:52:19.904Z,966.57
2018-03-23T15:53:19.938Z,966.55
2018-03-23T15:54:19.963Z,966.58
2018-03-23T15:55:19.994Z,966.55
2018-03-23T15:56:20.094Z,966.56
2018-03-23T15:57:20.053Z,966.56
2018-03-23T15:58:20.084Z,966.58
2018-03-23T15:59:20.115Z,966.57
2018-03-23T16:00:20.140Z,966.58
2018-03-23T16:01:20.188Z,966.56
2018-03-23T16:02:20.199Z,966.54
2018-03-23T16:03:20.228Z,966.56
2018-03-23T16:04:20.266Z,966.58
2018-03-23T16:05:20.296Z,966.56
2018-03-23T16:06:20.322Z,966.58
2018-03-23T16:07:20.356Z,966.57
2018-03-23T16:08:20.378Z,966.55
2018-03-23T16:09:20.415Z,966.55
2018-03-23T16:10:20.441Z,966.58
2018-03-23T16:11:20.470Z,966.58
2018-03-23T16:12:20.506Z,966.61
2018-03-23T16:13:20.575Z,966.63
2018-03-23T16:14:20.565Z,966.60
2018-03-23T16:15:20.592Z,966.59
2018-03-23T16:16:20.618Z,966.58
2018-03-23T16:17:20.653Z,966.58
2018-03-23T16:18:20.679Z,966.62
2018-03-23T16:19:20.710Z,966.61
2018-03-23T16:20:20.741Z,966.61
2018-03-23T16:21:20.774Z,966.59
2018-03-23T16:22:20.803Z,966.59
2018-03-23T16:23:20.835Z,966.59
2018-03-23T16:24:20.862Z,966.59
2018-03-23T16:25:20.889Z,966.61
2018-03-23T16:26:20.919Z,966.58
2018-03-23T16:27:20.947Z,966.57
2018-03-23T16:28:20.979Z,966.58
2018-03-23T16:29:21.010Z,966.54
2018-03-23T16:30:21.042Z,966.55
2018-03-23T16:31:21.067Z,966.51
2018-03-23T16:32:21.103Z,966.52
2018-03-23T16:33:21.139Z,966.54
2018-03-23T16:34:21.162Z,966.57
2018-03-23T16:35:21.200Z,966.55
2018-03-23T16:36:21.220Z,966.55
2018-03-23T16:37:21.249Z,966.51
2018-03-23T16:38:21.281Z,966.54
2018-03-23T16:39:21.312Z,966.54
2018-03-23T16:40:21.349Z,966.52
2018-03-23T16:41:21.376Z,966.50
2018-03-23T16:42:21.407Z,966.56
2018-03-23T16:43:21.438Z,966.52
2018-03-23T16:44:21.464Z,966.53
2018-03-23T16:45:21.495Z,966.52
2018-03-23T16:46:21.524Z,966.49
2018-03-23T16:47:21.620Z,966.52
